sensor_id;sensor_type;location;lat;lon;timestamp;P1;durP1;ratioP1;P2;durP2;ratioP2
9007;SDS011;62813;51.424;6.762;2023-04-24T00:01:53;1.53;;;0.80;;
9007;SDS011;62813;51.424;6.762;2023-04-24T00:04:20;3.83;;;1.57;;
9007;SDS011;62813;51.424;6.762;2023-04-24T00:06:47;3.23;;;1.60;;
9007;SDS011;62813;51.424;6.762;2023-04-24T00:09:17;3.60;;;2.13;;
9007;SDS011;62813;51.424;6.762;2023-04-24T00:11:44;4.10;;;2.57;;
9007;SDS011;62813;51.424;6.762;2023-04-24T00:14:11;3.47;;;2.17;;
9007;SDS011;62813;51.424;6.762;2023-04-24T00:16:37;5.37;;;2.60;;
9007;SDS011;62813;51.424;6.762;2023-04-24T00:19:04;6.47;;;3.17;;
9007;SDS011;62813;51.424;6.762;2023-04-24T00:21:32;5.73;;;2.63;;
9007;SDS011;62813;51.424;6.762;2023-04-24T00:23:59;4.00;;;1.73;;
9007;SDS011;62813;51.424;6.762;2023-04-24T00:26:26;3.10;;;1.90;;
9007;SDS011;62813;51.424;6.762;2023-04-24T00:28:53;4.17;;;2.07;;
9007;SDS011;62813;51.424;6.762;2023-04-24T00:31:19;4.40;;;2.10;;
9007;SDS011;62813;51.424;6.762;2023-04-24T00:33:46;2.93;;;1.87;;
9007;SDS011;62813;51.424;6.762;2023-04-24T00:36:12;2.10;;;1.53;;
9007;SDS011;62813;51.424;6.762;2023-04-24T00:38:39;2.00;;;1.20;;
9007;SDS011;62813;51.424;6.762;2023-04-24T00:41:06;2.80;;;1.40;;
9007;SDS011;62813;51.424;6.762;2023-04-24T00:43:34;2.07;;;1.33;;
9007;SDS011;62813;51.424;6.762;2023-04-24T00:46:01;2.67;;;1.60;;
9007;SDS011;62813;51.424;6.762;2023-04-24T00:48:28;4.70;;;2.30;;
9007;SDS011;62813;51.424;6.762;2023-04-24T00:50:55;2.47;;;2.03;;
9007;SDS011;62813;51.424;6.762;2023-04-24T00:53:21;3.13;;;2.40;;
9007;SDS011;62813;51.424;6.762;2023-04-24T00:55:48;3.07;;;2.00;;
9007;SDS011;62813;51.424;6.762;2023-04-24T00:58:14;3.17;;;2.23;;
9007;SDS011;62813;51.424;6.762;2023-04-24T01:00:41;3.10;;;2.00;;
9007;SDS011;62813;51.424;6.762;2023-04-24T01:03:08;2.90;;;2.53;;
9007;SDS011;62813;51.424;6.762;2023-04-24T01:05:35;3.20;;;2.57;;
9007;SDS011;62813;51.424;6.762;2023-04-24T01:08:01;4.33;;;2.67;;
9007;SDS011;62813;51.424;6.762;2023-04-24T01:10:29;4.97;;;2.83;;
9007;SDS011;62813;51.424;6.762;2023-04-24T01:12:56;4.63;;;2.90;;
9007;SDS011;62813;51.424;6.762;2023-04-24T01:15:23;3.40;;;2.83;;
9007;SDS011;62813;51.424;6.762;2023-04-24T01:17:50;5.80;;;3.30;;
9007;SDS011;62813;51.424;6.762;2023-04-24T01:20:17;3.27;;;2.77;;
9007;SDS011;62813;51.424;6.762;2023-04-24T01:22:43;6.07;;;3.40;;
9007;SDS011;62813;51.424;6.762;2023-04-24T01:25:10;5.07;;;3.60;;
9007;SDS011;62813;51.424;6.762;2023-04-24T01:27:37;3.60;;;3.30;;
9007;SDS011;62813;51.424;6.762;2023-04-24T01:30:03;4.47;;;3.57;;
9007;SDS011;62813;51.424;6.762;2023-04-24T01:32:30;4.63;;;3.43;;
9007;SDS011;62813;51.424;6.762;2023-04-24T01:34:57;3.63;;;3.33;;
9007;SDS011;62813;51.424;6.762;2023-04-24T01:37:24;6.13;;;3.90;;
9007;SDS011;62813;51.424;6.762;2023-04-24T01:39:50;7.07;;;4.10;;
9007;SDS011;62813;51.424;6.762;2023-04-24T01:42:17;4.57;;;3.70;;
9007;SDS011;62813;51.424;6.762;2023-04-24T01:44:44;7.97;;;4.70;;
9007;SDS011;62813;51.424;6.762;2023-04-24T01:47:10;11.63;;;4.67;;
9007;SDS011;62813;51.424;6.762;2023-04-24T01:49:38;7.10;;;4.53;;
9007;SDS011;62813;51.424;6.762;2023-04-24T01:52:05;5.07;;;3.90;;
9007;SDS011;62813;51.424;6.762;2023-04-24T01:54:31;5.87;;;3.80;;
9007;SDS011;62813;51.424;6.762;2023-04-24T01:56:58;5.83;;;4.10;;
9007;SDS011;62813;51.424;6.762;2023-04-24T01:59:25;5.33;;;4.30;;
9007;SDS011;62813;51.424;6.762;2023-04-24T02:01:52;6.57;;;4.93;;
9007;SDS011;62813;51.424;6.762;2023-04-24T02:04:18;6.73;;;4.73;;
9007;SDS011;62813;51.424;6.762;2023-04-24T02:06:45;8.57;;;4.90;;
9007;SDS011;62813;51.424;6.762;2023-04-24T02:09:12;7.50;;;4.70;;
9007;SDS011;62813;51.424;6.762;2023-04-24T02:11:38;7.60;;;5.07;;
9007;SDS011;62813;51.424;6.762;2023-04-24T02:14:05;8.67;;;5.23;;
9007;SDS011;62813;51.424;6.762;2023-04-24T02:16:31;8.70;;;5.20;;
9007;SDS011;62813;51.424;6.762;2023-04-24T02:18:59;9.93;;;5.10;;
9007;SDS011;62813;51.424;6.762;2023-04-24T02:21:25;10.03;;;6.00;;
9007;SDS011;62813;51.424;6.762;2023-04-24T02:23:53;8.37;;;5.50;;
9007;SDS011;62813;51.424;6.762;2023-04-24T02:26:20;12.23;;;6.97;;
9007;SDS011;62813;51.424;6.762;2023-04-24T02:28:46;8.30;;;6.40;;
9007;SDS011;62813;51.424;6.762;2023-04-24T02:31:13;8.50;;;6.47;;
9007;SDS011;62813;51.424;6.762;2023-04-24T02:33:40;10.23;;;6.97;;
9007;SDS011;62813;51.424;6.762;2023-04-24T02:36:06;13.37;;;6.53;;
9007;SDS011;62813;51.424;6.762;2023-04-24T02:38:33;9.57;;;7.00;;
9007;SDS011;62813;51.424;6.762;2023-04-24T02:40:59;12.30;;;7.23;;
9007;SDS011;62813;51.424;6.762;2023-04-24T02:43:27;10.83;;;6.87;;
9007;SDS011;62813;51.424;6.762;2023-04-24T02:45:53;11.17;;;6.63;;
9007;SDS011;62813;51.424;6.762;2023-04-24T02:48:20;9.73;;;7.17;;
9007;SDS011;62813;51.424;6.762;2023-04-24T02:50:48;8.83;;;6.77;;
9007;SDS011;62813;51.424;6.762;2023-04-24T02:53:14;10.20;;;7.27;;
9007;SDS011;62813;51.424;6.762;2023-04-24T02:55:41;14.13;;;7.80;;
9007;SDS011;62813;51.424;6.762;2023-04-24T02:58:07;11.50;;;7.80;;
9007;SDS011;62813;51.424;6.762;2023-04-24T03:00:34;10.47;;;7.47;;
9007;SDS011;62813;51.424;6.762;2023-04-24T03:03:03;13.33;;;9.13;;
9007;SDS011;62813;51.424;6.762;2023-04-24T03:05:30;14.13;;;8.70;;
9007;SDS011;62813;51.424;6.762;2023-04-24T03:07:57;14.47;;;9.00;;
9007;SDS011;62813;51.424;6.762;2023-04-24T03:10:23;13.90;;;9.10;;
9007;SDS011;62813;51.424;6.762;2023-04-24T03:12:50;14.80;;;9.37;;
9007;SDS011;62813;51.424;6.762;2023-04-24T03:15:17;14.67;;;10.33;;
9007;SDS011;62813;51.424;6.762;2023-04-24T03:17:43;16.40;;;9.63;;
9007;SDS011;62813;51.424;6.762;2023-04-24T03:20:11;14.00;;;9.83;;
9007;SDS011;62813;51.424;6.762;2023-04-24T03:22:37;18.53;;;9.80;;
9007;SDS011;62813;51.424;6.762;2023-04-24T03:25:04;14.83;;;9.20;;
9007;SDS011;62813;51.424;6.762;2023-04-24T03:27:31;19.30;;;9.50;;
9007;SDS011;62813;51.424;6.762;2023-04-24T03:29:58;15.27;;;9.27;;
9007;SDS011;62813;51.424;6.762;2023-04-24T03:32:24;18.73;;;10.10;;
9007;SDS011;62813;51.424;6.762;2023-04-24T03:34:51;12.20;;;9.03;;
9007;SDS011;62813;51.424;6.762;2023-04-24T03:37:17;19.73;;;9.57;;
9007;SDS011;62813;51.424;6.762;2023-04-24T03:39:44;17.47;;;8.83;;
9007;SDS011;62813;51.424;6.762;2023-04-24T03:42:11;12.07;;;9.10;;
9007;SDS011;62813;51.424;6.762;2023-04-24T03:44:38;12.90;;;9.17;;
9007;SDS011;62813;51.424;6.762;2023-04-24T03:47:04;11.37;;;8.50;;
9007;SDS011;62813;51.424;6.762;2023-04-24T03:49:31;17.53;;;8.53;;
9007;SDS011;62813;51.424;6.762;2023-04-24T03:51:58;13.20;;;8.73;;
9007;SDS011;62813;51.424;6.762;2023-04-24T03:54:25;12.93;;;9.00;;
9007;SDS011;62813;51.424;6.762;2023-04-24T03:56:52;13.40;;;8.23;;
9007;SDS011;62813;51.424;6.762;2023-04-24T03:59:18;10.13;;;7.93;;
9007;SDS011;62813;51.424;6.762;2023-04-24T04:01:45;15.10;;;9.33;;
9007;SDS011;62813;51.424;6.762;2023-04-24T04:04:12;13.83;;;9.50;;
9007;SDS011;62813;51.424;6.762;2023-04-24T04:06:39;14.70;;;9.07;;
9007;SDS011;62813;51.424;6.762;2023-04-24T04:09:06;14.97;;;8.80;;
9007;SDS011;62813;51.424;6.762;2023-04-24T04:11:33;15.47;;;9.93;;
9007;SDS011;62813;51.424;6.762;2023-04-24T04:14:00;18.80;;;11.57;;
9007;SDS011;62813;51.424;6.762;2023-04-24T04:16:26;19.83;;;12.37;;
9007;SDS011;62813;51.424;6.762;2023-04-24T04:18:53;20.30;;;12.77;;
9007;SDS011;62813;51.424;6.762;2023-04-24T04:21:19;20.30;;;11.93;;
9007;SDS011;62813;51.424;6.762;2023-04-24T04:23:46;15.67;;;10.77;;
9007;SDS011;62813;51.424;6.762;2023-04-24T04:26:13;15.17;;;10.13;;
9007;SDS011;62813;51.424;6.762;2023-04-24T04:28:39;14.70;;;9.60;;
9007;SDS011;62813;51.424;6.762;2023-04-24T04:31:07;13.17;;;9.27;;
9007;SDS011;62813;51.424;6.762;2023-04-24T04:33:34;10.93;;;9.10;;
9007;SDS011;62813;51.424;6.762;2023-04-24T04:36:02;17.60;;;9.53;;
9007;SDS011;62813;51.424;6.762;2023-04-24T04:38:30;12.73;;;9.60;;
9007;SDS011;62813;51.424;6.762;2023-04-24T04:40:56;11.90;;;9.07;;
9007;SDS011;62813;51.424;6.762;2023-04-24T04:43:23;15.90;;;9.17;;
9007;SDS011;62813;51.424;6.762;2023-04-24T04:45:50;13.53;;;9.47;;
9007;SDS011;62813;51.424;6.762;2023-04-24T04:48:17;13.67;;;9.23;;
9007;SDS011;62813;51.424;6.762;2023-04-24T04:50:45;13.50;;;8.40;;
9007;SDS011;62813;51.424;6.762;2023-04-24T04:53:11;11.10;;;7.53;;
9007;SDS011;62813;51.424;6.762;2023-04-24T04:55:38;12.80;;;7.87;;
9007;SDS011;62813;51.424;6.762;2023-04-24T04:58:05;12.37;;;8.70;;
9007;SDS011;62813;51.424;6.762;2023-04-24T05:00:31;15.67;;;8.43;;
9007;SDS011;62813;51.424;6.762;2023-04-24T05:03:02;12.90;;;8.20;;
9007;SDS011;62813;51.424;6.762;2023-04-24T05:05:45;11.50;;;7.83;;
9007;SDS011;62813;51.424;6.762;2023-04-24T05:08:12;16.07;;;8.40;;
9007;SDS011;62813;51.424;6.762;2023-04-24T05:10:52;9.97;;;7.07;;
9007;SDS011;62813;51.424;6.762;2023-04-24T05:13:18;10.67;;;6.43;;
9007;SDS011;62813;51.424;6.762;2023-04-24T05:15:57;13.17;;;7.13;;
9007;SDS011;62813;51.424;6.762;2023-04-24T05:18:23;10.10;;;6.37;;
9007;SDS011;62813;51.424;6.762;2023-04-24T05:20:50;7.53;;;5.83;;
9007;SDS011;62813;51.424;6.762;2023-04-24T05:23:18;10.30;;;6.57;;
9007;SDS011;62813;51.424;6.762;2023-04-24T05:25:45;12.17;;;7.70;;
9007;SDS011;62813;51.424;6.762;2023-04-24T05:28:14;10.33;;;6.97;;
9007;SDS011;62813;51.424;6.762;2023-04-24T05:30:41;10.27;;;7.43;;
9007;SDS011;62813;51.424;6.762;2023-04-24T05:33:08;12.30;;;8.07;;
9007;SDS011;62813;51.424;6.762;2023-04-24T05:35:35;10.97;;;7.53;;
9007;SDS011;62813;51.424;6.762;2023-04-24T05:38:01;10.13;;;7.73;;
9007;SDS011;62813;51.424;6.762;2023-04-24T05:40:28;16.13;;;9.63;;
9007;SDS011;62813;51.424;6.762;2023-04-24T05:42:55;13.40;;;8.90;;
9007;SDS011;62813;51.424;6.762;2023-04-24T05:45:21;11.60;;;9.37;;
9007;SDS011;62813;51.424;6.762;2023-04-24T05:47:48;15.17;;;8.33;;
9007;SDS011;62813;51.424;6.762;2023-04-24T05:50:14;9.27;;;7.63;;
9007;SDS011;62813;51.424;6.762;2023-04-24T05:52:41;11.73;;;8.20;;
9007;SDS011;62813;51.424;6.762;2023-04-24T05:55:07;13.37;;;7.73;;
9007;SDS011;62813;51.424;6.762;2023-04-24T05:57:34;13.40;;;8.97;;
9007;SDS011;62813;51.424;6.762;2023-04-24T06:00:01;14.20;;;9.07;;
9007;SDS011;62813;51.424;6.762;2023-04-24T06:02:27;12.60;;;9.37;;
9007;SDS011;62813;51.424;6.762;2023-04-24T06:04:59;12.80;;;9.10;;
9007;SDS011;62813;51.424;6.762;2023-04-24T06:07:26;10.67;;;7.07;;
9007;SDS011;62813;51.424;6.762;2023-04-24T06:09:52;10.43;;;7.50;;
9007;SDS011;62813;51.424;6.762;2023-04-24T06:12:19;12.07;;;6.83;;
9007;SDS011;62813;51.424;6.762;2023-04-24T06:14:45;9.50;;;6.67;;
9007;SDS011;62813;51.424;6.762;2023-04-24T06:17:12;8.73;;;7.77;;
9007;SDS011;62813;51.424;6.762;2023-04-24T06:19:39;11.03;;;7.40;;
9007;SDS011;62813;51.424;6.762;2023-04-24T06:22:07;14.23;;;9.37;;
9007;SDS011;62813;51.424;6.762;2023-04-24T06:24:36;10.23;;;8.30;;
9007;SDS011;62813;51.424;6.762;2023-04-24T06:27:02;12.80;;;8.57;;
9007;SDS011;62813;51.424;6.762;2023-04-24T06:29:29;10.70;;;8.87;;
9007;SDS011;62813;51.424;6.762;2023-04-24T06:31:56;14.53;;;8.60;;
9007;SDS011;62813;51.424;6.762;2023-04-24T06:34:22;14.23;;;8.93;;
9007;SDS011;62813;51.424;6.762;2023-04-24T06:36:49;10.07;;;7.70;;
9007;SDS011;62813;51.424;6.762;2023-04-24T06:39:15;13.77;;;8.63;;
9007;SDS011;62813;51.424;6.762;2023-04-24T06:41:42;10.17;;;7.53;;
9007;SDS011;62813;51.424;6.762;2023-04-24T06:44:08;12.13;;;7.60;;
9007;SDS011;62813;51.424;6.762;2023-04-24T06:46:35;12.63;;;8.80;;
9007;SDS011;62813;51.424;6.762;2023-04-24T06:49:03;10.77;;;7.70;;
9007;SDS011;62813;51.424;6.762;2023-04-24T06:51:29;8.17;;;6.73;;
9007;SDS011;62813;51.424;6.762;2023-04-24T06:53:56;7.00;;;5.47;;
9007;SDS011;62813;51.424;6.762;2023-04-24T06:56:23;6.87;;;4.93;;
9007;SDS011;62813;51.424;6.762;2023-04-24T06:58:50;5.77;;;3.93;;
9007;SDS011;62813;51.424;6.762;2023-04-24T07:01:17;6.20;;;4.73;;
9007;SDS011;62813;51.424;6.762;2023-04-24T07:03:44;5.20;;;4.10;;
9007;SDS011;62813;51.424;6.762;2023-04-24T07:06:11;5.67;;;3.90;;
9007;SDS011;62813;51.424;6.762;2023-04-24T07:08:38;4.23;;;3.30;;
9007;SDS011;62813;51.424;6.762;2023-04-24T07:11:05;4.43;;;3.87;;
9007;SDS011;62813;51.424;6.762;2023-04-24T07:13:32;8.67;;;4.60;;
9007;SDS011;62813;51.424;6.762;2023-04-24T07:16:00;9.10;;;3.70;;
9007;SDS011;62813;51.424;6.762;2023-04-24T07:18:27;6.57;;;3.67;;
9007;SDS011;62813;51.424;6.762;2023-04-24T07:20:53;7.53;;;2.80;;
9007;SDS011;62813;51.424;6.762;2023-04-24T07:23:20;4.10;;;1.93;;
9007;SDS011;62813;51.424;6.762;2023-04-24T07:25:47;2.40;;;2.20;;
9007;SDS011;62813;51.424;6.762;2023-04-24T07:28:13;2.40;;;1.90;;
9007;SDS011;62813;51.424;6.762;2023-04-24T07:30:40;4.13;;;2.63;;
9007;SDS011;62813;51.424;6.762;2023-04-24T07:33:06;4.47;;;2.87;;
9007;SDS011;62813;51.424;6.762;2023-04-24T07:35:33;3.43;;;2.37;;
9007;SDS011;62813;51.424;6.762;2023-04-24T07:38:00;4.77;;;2.40;;
9007;SDS011;62813;51.424;6.762;2023-04-24T07:40:26;4.33;;;2.30;;
9007;SDS011;62813;51.424;6.762;2023-04-24T07:42:53;3.37;;;1.20;;
9007;SDS011;62813;51.424;6.762;2023-04-24T07:45:19;1.63;;;1.00;;
9007;SDS011;62813;51.424;6.762;2023-04-24T07:47:46;26.77;;;3.87;;
9007;SDS011;62813;51.424;6.762;2023-04-24T07:50:13;4.27;;;1.00;;
9007;SDS011;62813;51.424;6.762;2023-04-24T07:52:39;1.57;;;0.97;;
9007;SDS011;62813;51.424;6.762;2023-04-24T07:55:06;1.60;;;1.00;;
9007;SDS011;62813;51.424;6.762;2023-04-24T07:57:33;1.10;;;0.90;;
9007;SDS011;62813;51.424;6.762;2023-04-24T08:00:00;1.80;;;1.10;;
9007;SDS011;62813;51.424;6.762;2023-04-24T08:02:29;2.40;;;1.63;;
9007;SDS011;62813;51.424;6.762;2023-04-24T08:04:55;1.83;;;1.40;;
9007;SDS011;62813;51.424;6.762;2023-04-24T08:07:25;1.73;;;1.43;;
9007;SDS011;62813;51.424;6.762;2023-04-24T08:09:52;2.30;;;1.50;;
9007;SDS011;62813;51.424;6.762;2023-04-24T08:12:18;2.50;;;1.80;;
9007;SDS011;62813;51.424;6.762;2023-04-24T08:14:45;2.13;;;1.83;;
9007;SDS011;62813;51.424;6.762;2023-04-24T08:17:12;2.77;;;2.23;;
9007;SDS011;62813;51.424;6.762;2023-04-24T08:19:39;2.37;;;2.17;;
9007;SDS011;62813;51.424;6.762;2023-04-24T08:22:10;2.30;;;2.10;;
9007;SDS011;62813;51.424;6.762;2023-04-24T08:24:39;3.07;;;2.20;;
9007;SDS011;62813;51.424;6.762;2023-04-24T08:27:05;1.60;;;1.40;;
9007;SDS011;62813;51.424;6.762;2023-04-24T08:29:32;2.40;;;1.60;;
9007;SDS011;62813;51.424;6.762;2023-04-24T08:31:59;2.63;;;1.20;;
9007;SDS011;62813;51.424;6.762;2023-04-24T08:34:25;3.40;;;1.30;;
9007;SDS011;62813;51.424;6.762;2023-04-24T08:36:52;3.60;;;1.00;;
9007;SDS011;62813;51.424;6.762;2023-04-24T08:39:18;5.03;;;1.40;;
9007;SDS011;62813;51.424;6.762;2023-04-24T08:41:45;2.97;;;0.90;;
9007;SDS011;62813;51.424;6.762;2023-04-24T08:44:12;1.53;;;1.30;;
9007;SDS011;62813;51.424;6.762;2023-04-24T08:46:40;1.60;;;0.97;;
9007;SDS011;62813;51.424;6.762;2023-04-24T08:49:07;1.20;;;0.93;;
9007;SDS011;62813;51.424;6.762;2023-04-24T08:51:34;0.80;;;0.80;;
9007;SDS011;62813;51.424;6.762;2023-04-24T08:54:02;2.03;;;1.13;;
9007;SDS011;62813;51.424;6.762;2023-04-24T08:56:30;1.67;;;1.10;;
9007;SDS011;62813;51.424;6.762;2023-04-24T08:58:58;2.23;;;0.83;;
9007;SDS011;62813;51.424;6.762;2023-04-24T09:01:24;1.67;;;1.20;;
9007;SDS011;62813;51.424;6.762;2023-04-24T09:03:51;5.43;;;1.70;;
9007;SDS011;62813;51.424;6.762;2023-04-24T09:06:19;4.47;;;3.03;;
9007;SDS011;62813;51.424;6.762;2023-04-24T09:08:48;8.60;;;4.10;;
9007;SDS011;62813;51.424;6.762;2023-04-24T09:11:16;7.07;;;4.20;;
9007;SDS011;62813;51.424;6.762;2023-04-24T09:13:43;7.27;;;5.30;;
9007;SDS011;62813;51.424;6.762;2023-04-24T09:16:09;8.43;;;6.03;;
9007;SDS011;62813;51.424;6.762;2023-04-24T09:18:36;8.30;;;6.17;;
9007;SDS011;62813;51.424;6.762;2023-04-24T09:21:04;9.33;;;6.63;;
9007;SDS011;62813;51.424;6.762;2023-04-24T09:23:32;8.57;;;5.93;;
9007;SDS011;62813;51.424;6.762;2023-04-24T09:26:00;10.40;;;5.80;;
9007;SDS011;62813;51.424;6.762;2023-04-24T09:28:30;6.77;;;4.20;;
9007;SDS011;62813;51.424;6.762;2023-04-24T09:31:03;8.77;;;5.53;;
9007;SDS011;62813;51.424;6.762;2023-04-24T09:33:33;10.23;;;5.33;;
9007;SDS011;62813;51.424;6.762;2023-04-24T09:35:59;11.03;;;4.57;;
9007;SDS011;62813;51.424;6.762;2023-04-24T09:38:37;8.57;;;4.90;;
9007;SDS011;62813;51.424;6.762;2023-04-24T09:41:05;15.73;;;7.83;;
9007;SDS011;62813;51.424;6.762;2023-04-24T09:43:32;19.10;;;8.30;;
9007;SDS011;62813;51.424;6.762;2023-04-24T09:46:00;19.87;;;10.73;;
9007;SDS011;62813;51.424;6.762;2023-04-24T09:48:33;10.23;;;6.43;;
9007;SDS011;62813;51.424;6.762;2023-04-24T09:51:00;13.20;;;7.87;;
9007;SDS011;62813;51.424;6.762;2023-04-24T09:53:27;20.70;;;9.50;;
9007;SDS011;62813;51.424;6.762;2023-04-24T09:55:54;17.90;;;9.97;;
9007;SDS011;62813;51.424;6.762;2023-04-24T09:58:24;41.83;;;13.47;;
9007;SDS011;62813;51.424;6.762;2023-04-24T10:00:58;27.87;;;14.77;;
9007;SDS011;62813;51.424;6.762;2023-04-24T10:03:25;23.97;;;14.43;;
9007;SDS011;62813;51.424;6.762;2023-04-24T10:05:54;25.43;;;15.10;;
9007;SDS011;62813;51.424;6.762;2023-04-24T10:08:24;17.70;;;9.93;;
9007;SDS011;62813;51.424;6.762;2023-04-24T10:10:51;17.80;;;9.00;;
9007;SDS011;62813;51.424;6.762;2023-04-24T10:13:18;35.93;;;16.00;;
9007;SDS011;62813;51.424;6.762;2023-04-24T10:15:45;42.60;;;17.73;;
9007;SDS011;62813;51.424;6.762;2023-04-24T10:18:13;42.47;;;16.60;;
9007;SDS011;62813;51.424;6.762;2023-04-24T10:20:41;22.57;;;11.10;;
9007;SDS011;62813;51.424;6.762;2023-04-24T10:23:08;26.27;;;11.77;;
9007;SDS011;62813;51.424;6.762;2023-04-24T10:25:35;29.57;;;10.23;;
9007;SDS011;62813;51.424;6.762;2023-04-24T10:28:03;31.87;;;12.00;;
9007;SDS011;62813;51.424;6.762;2023-04-24T10:30:31;44.40;;;13.57;;
9007;SDS011;62813;51.424;6.762;2023-04-24T10:33:04;33.83;;;11.03;;
9007;SDS011;62813;51.424;6.762;2023-04-24T10:35:32;20.03;;;7.80;;
9007;SDS011;62813;51.424;6.762;2023-04-24T10:38:23;12.00;;;5.83;;
9007;SDS011;62813;51.424;6.762;2023-04-24T10:40:47;13.13;;;5.50;;
9007;SDS011;62813;51.424;6.762;2023-04-24T10:43:17;22.10;;;6.53;;
9007;SDS011;62813;51.424;6.762;2023-04-24T10:46:00;16.97;;;5.63;;
9007;SDS011;62813;51.424;6.762;2023-04-24T10:48:26;14.77;;;4.93;;
9007;SDS011;62813;51.424;6.762;2023-04-24T10:50:53;21.73;;;10.93;;
9007;SDS011;62813;51.424;6.762;2023-04-24T10:53:20;14.97;;;5.13;;
9007;SDS011;62813;51.424;6.762;2023-04-24T10:55:50;11.60;;;4.00;;
9007;SDS011;62813;51.424;6.762;2023-04-24T10:58:21;15.13;;;4.47;;
9007;SDS011;62813;51.424;6.762;2023-04-24T11:00:57;12.10;;;4.33;;
9007;SDS011;62813;51.424;6.762;2023-04-24T11:03:28;12.13;;;4.37;;
9007;SDS011;62813;51.424;6.762;2023-04-24T11:06:03;18.50;;;4.87;;
9007;SDS011;62813;51.424;6.762;2023-04-24T11:08:37;11.77;;;4.57;;
9007;SDS011;62813;51.424;6.762;2023-04-24T11:16:20;11.97;;;4.90;;
9007;SDS011;62813;51.424;6.762;2023-04-24T11:18:51;15.60;;;4.77;;
9007;SDS011;62813;51.424;6.762;2023-04-24T11:21:21;15.83;;;9.73;;
9007;SDS011;62813;51.424;6.762;2023-04-24T11:23:48;10.00;;;3.57;;
9007;SDS011;62813;51.424;6.762;2023-04-24T11:26:18;8.50;;;3.10;;
9007;SDS011;62813;51.424;6.762;2023-04-24T11:28:46;10.53;;;3.63;;
9007;SDS011;62813;51.424;6.762;2023-04-24T11:34:05;10.00;;;3.07;;
9007;SDS011;62813;51.424;6.762;2023-04-24T11:36:31;11.03;;;2.87;;
9007;SDS011;62813;51.424;6.762;2023-04-24T11:38:58;7.30;;;2.50;;
9007;SDS011;62813;51.424;6.762;2023-04-24T11:41:24;13.33;;;3.43;;
9007;SDS011;62813;51.424;6.762;2023-04-24T11:43:52;9.20;;;3.13;;
9007;SDS011;62813;51.424;6.762;2023-04-24T11:46:20;12.70;;;3.40;;
9007;SDS011;62813;51.424;6.762;2023-04-24T11:48:47;9.73;;;3.13;;
9007;SDS011;62813;51.424;6.762;2023-04-24T11:51:13;12.30;;;3.30;;
9007;SDS011;62813;51.424;6.762;2023-04-24T11:53:40;9.03;;;3.40;;
9007;SDS011;62813;51.424;6.762;2023-04-24T11:56:08;13.77;;;4.07;;
9007;SDS011;62813;51.424;6.762;2023-04-24T11:58:35;6.60;;;3.70;;
9007;SDS011;62813;51.424;6.762;2023-04-24T12:01:03;8.13;;;3.40;;
9007;SDS011;62813;51.424;6.762;2023-04-24T12:03:29;6.67;;;3.40;;
9007;SDS011;62813;51.424;6.762;2023-04-24T12:06:09;9.27;;;3.93;;
9007;SDS011;62813;51.424;6.762;2023-04-24T12:08:36;8.73;;;4.63;;
9007;SDS011;62813;51.424;6.762;2023-04-24T12:11:04;10.37;;;4.77;;
9007;SDS011;62813;51.424;6.762;2023-04-24T12:13:32;14.93;;;4.57;;
9007;SDS011;62813;51.424;6.762;2023-04-24T12:15:59;11.97;;;5.70;;
9007;SDS011;62813;51.424;6.762;2023-04-24T12:18:26;11.10;;;5.80;;
9007;SDS011;62813;51.424;6.762;2023-04-24T12:20:53;10.87;;;4.47;;
9007;SDS011;62813;51.424;6.762;2023-04-24T12:23:33;10.97;;;3.43;;
9007;SDS011;62813;51.424;6.762;2023-04-24T12:26:00;12.70;;;4.23;;
9007;SDS011;62813;51.424;6.762;2023-04-24T12:28:34;12.00;;;4.10;;
9007;SDS011;62813;51.424;6.762;2023-04-24T12:31:01;13.33;;;5.07;;
9007;SDS011;62813;51.424;6.762;2023-04-24T12:33:28;16.37;;;6.20;;
9007;SDS011;62813;51.424;6.762;2023-04-24T12:35:58;26.63;;;9.80;;
9007;SDS011;62813;51.424;6.762;2023-04-24T12:38:26;29.67;;;10.23;;
9007;SDS011;62813;51.424;6.762;2023-04-24T12:41:05;20.03;;;8.10;;
9007;SDS011;62813;51.424;6.762;2023-04-24T12:43:32;22.13;;;9.43;;
9007;SDS011;62813;51.424;6.762;2023-04-24T12:45:58;15.63;;;7.63;;
9007;SDS011;62813;51.424;6.762;2023-04-24T12:48:26;14.60;;;6.50;;
9007;SDS011;62813;51.424;6.762;2023-04-24T12:50:52;12.03;;;5.67;;
9007;SDS011;62813;51.424;6.762;2023-04-24T12:53:19;3.60;;;2.20;;
9007;SDS011;62813;51.424;6.762;2023-04-24T12:55:46;5.47;;;2.33;;
9007;SDS011;62813;51.424;6.762;2023-04-24T12:58:21;7.30;;;2.83;;
9007;SDS011;62813;51.424;6.762;2023-04-24T13:00:48;11.10;;;4.37;;
9007;SDS011;62813;51.424;6.762;2023-04-24T13:03:14;10.10;;;3.67;;
9007;SDS011;62813;51.424;6.762;2023-04-24T13:05:42;4.77;;;1.80;;
9007;SDS011;62813;51.424;6.762;2023-04-24T13:08:09;4.07;;;2.03;;
9007;SDS011;62813;51.424;6.762;2023-04-24T13:10:35;7.20;;;1.80;;
9007;SDS011;62813;51.424;6.762;2023-04-24T13:13:02;4.53;;;1.43;;
9007;SDS011;62813;51.424;6.762;2023-04-24T13:15:29;3.50;;;1.50;;
9007;SDS011;62813;51.424;6.762;2023-04-24T13:17:56;4.40;;;1.30;;
9007;SDS011;62813;51.424;6.762;2023-04-24T13:20:22;10.43;;;1.50;;
9007;SDS011;62813;51.424;6.762;2023-04-24T13:22:49;3.90;;;1.33;;
9007;SDS011;62813;51.424;6.762;2023-04-24T13:25:15;4.10;;;1.87;;
9007;SDS011;62813;51.424;6.762;2023-04-24T13:27:43;7.73;;;1.50;;
9007;SDS011;62813;51.424;6.762;2023-04-24T13:30:10;3.30;;;1.30;;
9007;SDS011;62813;51.424;6.762;2023-04-24T13:32:36;4.40;;;1.40;;
9007;SDS011;62813;51.424;6.762;2023-04-24T13:35:03;4.70;;;1.60;;
9007;SDS011;62813;51.424;6.762;2023-04-24T13:37:30;6.17;;;1.53;;
9007;SDS011;62813;51.424;6.762;2023-04-24T13:39:57;5.77;;;1.93;;
9007;SDS011;62813;51.424;6.762;2023-04-24T13:42:23;7.00;;;3.00;;
9007;SDS011;62813;51.424;6.762;2023-04-24T13:44:50;7.63;;;1.80;;
9007;SDS011;62813;51.424;6.762;2023-04-24T13:47:17;5.17;;;1.40;;
9007;SDS011;62813;51.424;6.762;2023-04-24T13:49:44;4.90;;;1.47;;
9007;SDS011;62813;51.424;6.762;2023-04-24T13:52:10;4.17;;;1.47;;
9007;SDS011;62813;51.424;6.762;2023-04-24T13:54:37;5.13;;;1.60;;
9007;SDS011;62813;51.424;6.762;2023-04-24T13:57:04;9.93;;;1.83;;
9007;SDS011;62813;51.424;6.762;2023-04-24T13:59:31;4.90;;;1.60;;
9007;SDS011;62813;51.424;6.762;2023-04-24T14:01:57;4.53;;;2.07;;
9007;SDS011;62813;51.424;6.762;2023-04-24T14:04:24;5.73;;;1.57;;
9007;SDS011;62813;51.424;6.762;2023-04-24T14:06:52;4.80;;;1.33;;
9007;SDS011;62813;51.424;6.762;2023-04-24T14:09:18;2.13;;;1.13;;
9007;SDS011;62813;51.424;6.762;2023-04-24T14:11:45;3.17;;;1.47;;
9007;SDS011;62813;51.424;6.762;2023-04-24T14:14:12;5.00;;;1.50;;
9007;SDS011;62813;51.424;6.762;2023-04-24T14:16:38;7.43;;;3.80;;
9007;SDS011;62813;51.424;6.762;2023-04-24T14:19:06;4.40;;;2.37;;
9007;SDS011;62813;51.424;6.762;2023-04-24T14:21:32;5.37;;;2.40;;
9007;SDS011;62813;51.424;6.762;2023-04-24T14:23:59;4.90;;;2.87;;
9007;SDS011;62813;51.424;6.762;2023-04-24T14:26:26;3.50;;;1.80;;
9007;SDS011;62813;51.424;6.762;2023-04-24T14:28:53;8.70;;;6.13;;
9007;SDS011;62813;51.424;6.762;2023-04-24T14:31:36;2.30;;;1.23;;
9007;SDS011;62813;51.424;6.762;2023-04-24T14:34:02;3.20;;;1.30;;
9007;SDS011;62813;51.424;6.762;2023-04-24T14:36:29;3.47;;;1.17;;
9007;SDS011;62813;51.424;6.762;2023-04-24T14:38:57;3.93;;;1.47;;
9007;SDS011;62813;51.424;6.762;2023-04-24T14:41:24;5.43;;;1.63;;
9007;SDS011;62813;51.424;6.762;2023-04-24T14:43:50;6.57;;;2.00;;
9007;SDS011;62813;51.424;6.762;2023-04-24T14:46:17;4.90;;;1.60;;
9007;SDS011;62813;51.424;6.762;2023-04-24T14:48:44;5.87;;;1.40;;
9007;SDS011;62813;51.424;6.762;2023-04-24T14:51:11;4.97;;;2.37;;
9007;SDS011;62813;51.424;6.762;2023-04-24T14:53:38;4.67;;;2.10;;
9007;SDS011;62813;51.424;6.762;2023-04-24T14:56:05;2.00;;;1.50;;
9007;SDS011;62813;51.424;6.762;2023-04-24T14:58:31;2.90;;;1.47;;
9007;SDS011;62813;51.424;6.762;2023-04-24T15:00:58;4.37;;;1.80;;
9007;SDS011;62813;51.424;6.762;2023-04-24T15:03:25;6.63;;;1.70;;